sensor_id;sensor_type;location;lat;lon;timestamp;P1;durP1;ratioP1;P2;durP2;ratioP2
24663;SDS011;12791;50.992;13.788;2022-09-09T00:00:52;2.53;;;0.80;;
24663;SDS011;12791;50.992;13.788;2022-09-09T00:03:24;2.08;;;0.90;;
24663;SDS011;12791;50.992;13.788;2022-09-09T00:05:55;1.58;;;0.90;;
24663;SDS011;12791;50.992;13.788;2022-09-09T00:08:31;1.98;;;0.82;;
24663;SDS011;12791;50.992;13.788;2022-09-09T00:11:07;0.80;;;0.80;;
24663;SDS011;12791;50.992;13.788;2022-09-09T00:13:39;1.48;;;0.80;;
24663;SDS011;12791;50.992;13.788;2022-09-09T00:16:15;1.00;;;0.90;;
24663;SDS011;12791;50.992;13.788;2022-09-09T00:18:48;1.83;;;0.80;;
24663;SDS011;12791;50.992;13.788;2022-09-09T00:21:18;0.90;;;0.90;;
24663;SDS011;12791;50.992;13.788;2022-09-09T00:23:48;2.80;;;0.88;;
24663;SDS011;12791;50.992;13.788;2022-09-09T00:26:19;2.10;;;1.02;;
24663;SDS011;12791;50.992;13.788;2022-09-09T00:28:50;1.27;;;0.88;;
24663;SDS011;12791;50.992;13.788;2022-09-09T00:31:27;1.20;;;0.90;;
24663;SDS011;12791;50.992;13.788;2022-09-09T00:33:56;1.42;;;0.80;;
24663;SDS011;12791;50.992;13.788;2022-09-09T00:36:29;2.97;;;0.95;;
24663;SDS011;12791;50.992;13.788;2022-09-09T00:38:59;0.85;;;0.85;;
24663;SDS011;12791;50.992;13.788;2022-09-09T00:41:29;0.88;;;0.88;;
24663;SDS011;12791;50.992;13.788;2022-09-09T00:44:13;1.90;;;0.88;;
24663;SDS011;12791;50.992;13.788;2022-09-09T00:46:50;1.85;;;0.73;;
24663;SDS011;12791;50.992;13.788;2022-09-09T00:49:37;0.82;;;0.82;;
24663;SDS011;12791;50.992;13.788;2022-09-09T00:52:15;1.25;;;0.65;;
24663;SDS011;12791;50.992;13.788;2022-09-09T00:54:51;0.73;;;0.73;;
24663;SDS011;12791;50.992;13.788;2022-09-09T00:57:25;1.27;;;0.70;;
24663;SDS011;12791;50.992;13.788;2022-09-09T00:59:58;2.05;;;1.00;;
24663;SDS011;12791;50.992;13.788;2022-09-09T01:02:44;4.13;;;0.95;;
24663;SDS011;12791;50.992;13.788;2022-09-09T01:05:25;0.95;;;0.70;;
24663;SDS011;12791;50.992;13.788;2022-09-09T01:07:55;3.60;;;0.77;;
24663;SDS011;12791;50.992;13.788;2022-09-09T01:10:29;1.30;;;0.70;;
24663;SDS011;12791;50.992;13.788;2022-09-09T01:13:08;0.85;;;0.60;;
24663;SDS011;12791;50.992;13.788;2022-09-09T01:15:41;0.50;;;0.50;;
24663;SDS011;12791;50.992;13.788;2022-09-09T01:18:13;0.68;;;0.55;;
24663;SDS011;12791;50.992;13.788;2022-09-09T01:20:44;2.55;;;0.70;;
24663;SDS011;12791;50.992;13.788;2022-09-09T01:23:32;0.75;;;0.70;;
24663;SDS011;12791;50.992;13.788;2022-09-09T01:26:14;1.38;;;0.57;;
24663;SDS011;12791;50.992;13.788;2022-09-09T01:28:44;0.85;;;0.60;;
24663;SDS011;12791;50.992;13.788;2022-09-09T01:31:14;1.73;;;0.52;;
24663;SDS011;12791;50.992;13.788;2022-09-09T01:33:44;0.80;;;0.60;;
24663;SDS011;12791;50.992;13.788;2022-09-09T01:36:12;1.45;;;0.63;;
24663;SDS011;12791;50.992;13.788;2022-09-09T01:38:43;2.47;;;0.60;;
24663;SDS011;12791;50.992;13.788;2022-09-09T01:41:10;1.00;;;0.80;;
24663;SDS011;12791;50.992;13.788;2022-09-09T01:43:38;1.42;;;0.70;;
24663;SDS011;12791;50.992;13.788;2022-09-09T01:46:05;1.15;;;0.80;;
24663;SDS011;12791;50.992;13.788;2022-09-09T01:48:32;1.33;;;0.80;;
24663;SDS011;12791;50.992;13.788;2022-09-09T01:50:59;1.30;;;0.70;;
24663;SDS011;12791;50.992;13.788;2022-09-09T01:53:26;2.38;;;0.60;;
24663;SDS011;12791;50.992;13.788;2022-09-09T01:55:56;1.40;;;0.60;;
24663;SDS011;12791;50.992;13.788;2022-09-09T01:58:32;1.15;;;0.80;;
24663;SDS011;12791;50.992;13.788;2022-09-09T02:01:08;1.70;;;0.70;;
24663;SDS011;12791;50.992;13.788;2022-09-09T02:03:44;1.23;;;0.70;;
24663;SDS011;12791;50.992;13.788;2022-09-09T02:06:20;3.13;;;0.77;;
24663;SDS011;12791;50.992;13.788;2022-09-09T02:08:54;1.83;;;0.80;;
24663;SDS011;12791;50.992;13.788;2022-09-09T02:11:25;3.03;;;0.65;;
24663;SDS011;12791;50.992;13.788;2022-09-09T02:13:54;2.25;;;0.63;;
24663;SDS011;12791;50.992;13.788;2022-09-09T02:16:28;2.50;;;0.60;;
24663;SDS011;12791;50.992;13.788;2022-09-09T02:19:01;1.05;;;0.70;;
24663;SDS011;12791;50.992;13.788;2022-09-09T02:21:32;0.85;;;0.63;;
24663;SDS011;12791;50.992;13.788;2022-09-09T02:24:00;0.55;;;0.55;;
24663;SDS011;12791;50.992;13.788;2022-09-09T02:26:30;1.30;;;0.55;;
24663;SDS011;12791;50.992;13.788;2022-09-09T02:28:59;2.90;;;0.90;;
24663;SDS011;12791;50.992;13.788;2022-09-09T02:31:30;1.25;;;0.68;;
24663;SDS011;12791;50.992;13.788;2022-09-09T02:34:01;0.68;;;0.65;;
24663;SDS011;12791;50.992;13.788;2022-09-09T02:36:30;2.00;;;0.90;;
24663;SDS011;12791;50.992;13.788;2022-09-09T02:39:00;3.25;;;0.90;;
24663;SDS011;12791;50.992;13.788;2022-09-09T02:41:28;0.93;;;0.80;;
24663;SDS011;12791;50.992;13.788;2022-09-09T02:43:58;1.80;;;0.77;;
24663;SDS011;12791;50.992;13.788;2022-09-09T02:46:35;1.02;;;0.75;;
24663;SDS011;12791;50.992;13.788;2022-09-09T02:49:10;1.05;;;0.60;;
24663;SDS011;12791;50.992;13.788;2022-09-09T02:51:45;2.00;;;0.70;;
24663;SDS011;12791;50.992;13.788;2022-09-09T02:54:21;1.88;;;0.80;;
24663;SDS011;12791;50.992;13.788;2022-09-09T02:56:53;0.63;;;0.63;;
24663;SDS011;12791;50.992;13.788;2022-09-09T02:59:21;0.98;;;0.63;;
24663;SDS011;12791;50.992;13.788;2022-09-09T03:01:52;2.67;;;0.75;;
24663;SDS011;12791;50.992;13.788;2022-09-09T03:04:19;2.95;;;0.80;;
24663;SDS011;12791;50.992;13.788;2022-09-09T03:06:46;1.67;;;1.00;;
24663;SDS011;12791;50.992;13.788;2022-09-09T03:09:13;1.55;;;1.08;;
24663;SDS011;12791;50.992;13.788;2022-09-09T03:11:40;1.15;;;0.82;;
24663;SDS011;12791;50.992;13.788;2022-09-09T03:14:06;1.30;;;0.70;;
24663;SDS011;12791;50.992;13.788;2022-09-09T03:16:33;1.58;;;0.80;;
24663;SDS011;12791;50.992;13.788;2022-09-09T03:19:02;3.05;;;0.80;;
24663;SDS011;12791;50.992;13.788;2022-09-09T03:21:29;1.23;;;0.60;;
24663;SDS011;12791;50.992;13.788;2022-09-09T03:23:56;1.83;;;0.82;;
24663;SDS011;12791;50.992;13.788;2022-09-09T03:26:23;1.63;;;0.70;;
24663;SDS011;12791;50.992;13.788;2022-09-09T03:28:50;0.80;;;0.80;;
24663;SDS011;12791;50.992;13.788;2022-09-09T03:31:17;2.13;;;0.70;;
24663;SDS011;12791;50.992;13.788;2022-09-09T03:33:44;0.70;;;0.70;;
24663;SDS011;12791;50.992;13.788;2022-09-09T03:36:12;1.42;;;0.70;;
24663;SDS011;12791;50.992;13.788;2022-09-09T03:38:39;1.73;;;1.20;;
24663;SDS011;12791;50.992;13.788;2022-09-09T03:41:05;0.80;;;0.80;;
24663;SDS011;12791;50.992;13.788;2022-09-09T03:43:39;3.83;;;1.20;;
24663;SDS011;12791;50.992;13.788;2022-09-09T03:46:06;2.25;;;0.82;;
24663;SDS011;12791;50.992;13.788;2022-09-09T03:48:33;0.88;;;0.82;;
24663;SDS011;12791;50.992;13.788;2022-09-09T03:51:00;0.73;;;0.73;;
24663;SDS011;12791;50.992;13.788;2022-09-09T03:53:28;1.27;;;0.70;;
24663;SDS011;12791;50.992;13.788;2022-09-09T03:55:55;1.95;;;1.00;;
24663;SDS011;12791;50.992;13.788;2022-09-09T03:58:24;2.33;;;0.98;;
24663;SDS011;12791;50.992;13.788;2022-09-09T04:00:54;0.80;;;0.80;;
24663;SDS011;12791;50.992;13.788;2022-09-09T04:03:21;1.45;;;0.82;;
24663;SDS011;12791;50.992;13.788;2022-09-09T04:05:49;4.70;;;1.08;;
24663;SDS011;12791;50.992;13.788;2022-09-09T04:08:16;4.22;;;1.15;;
24663;SDS011;12791;50.992;13.788;2022-09-09T04:10:44;2.28;;;0.93;;
24663;SDS011;12791;50.992;13.788;2022-09-09T04:13:11;1.10;;;0.80;;
24663;SDS011;12791;50.992;13.788;2022-09-09T04:15:41;2.60;;;0.82;;
24663;SDS011;12791;50.992;13.788;2022-09-09T04:18:09;1.27;;;0.98;;
24663;SDS011;12791;50.992;13.788;2022-09-09T04:20:36;3.40;;;1.23;;
24663;SDS011;12791;50.992;13.788;2022-09-09T04:23:03;1.60;;;0.93;;
24663;SDS011;12791;50.992;13.788;2022-09-09T04:25:30;4.35;;;1.00;;
24663;SDS011;12791;50.992;13.788;2022-09-09T04:27:57;4.03;;;1.00;;
24663;SDS011;12791;50.992;13.788;2022-09-09T04:30:24;3.22;;;1.20;;
24663;SDS011;12791;50.992;13.788;2022-09-09T04:32:52;1.30;;;1.10;;
24663;SDS011;12791;50.992;13.788;2022-09-09T04:35:20;4.20;;;1.00;;
24663;SDS011;12791;50.992;13.788;2022-09-09T04:37:46;3.08;;;1.30;;
24663;SDS011;12791;50.992;13.788;2022-09-09T04:40:13;3.83;;;1.08;;
24663;SDS011;12791;50.992;13.788;2022-09-09T04:42:40;1.90;;;1.10;;
24663;SDS011;12791;50.992;13.788;2022-09-09T04:45:09;2.92;;;1.40;;
24663;SDS011;12791;50.992;13.788;2022-09-09T04:47:37;4.57;;;1.55;;
24663;SDS011;12791;50.992;13.788;2022-09-09T04:50:04;7.85;;;1.98;;
24663;SDS011;12791;50.992;13.788;2022-09-09T04:52:34;7.32;;;1.63;;
24663;SDS011;12791;50.992;13.788;2022-09-09T04:55:02;4.55;;;1.30;;
24663;SDS011;12791;50.992;13.788;2022-09-09T04:57:29;3.70;;;1.40;;
24663;SDS011;12791;50.992;13.788;2022-09-09T04:59:57;2.40;;;1.10;;
24663;SDS011;12791;50.992;13.788;2022-09-09T05:02:24;2.75;;;1.35;;
24663;SDS011;12791;50.992;13.788;2022-09-09T05:04:51;2.40;;;1.10;;
24663;SDS011;12791;50.992;13.788;2022-09-09T05:07:18;5.22;;;1.00;;
24663;SDS011;12791;50.992;13.788;2022-09-09T05:09:46;2.53;;;1.10;;
24663;SDS011;12791;50.992;13.788;2022-09-09T05:12:14;3.25;;;0.93;;
24663;SDS011;12791;50.992;13.788;2022-09-09T05:14:41;4.47;;;1.33;;
24663;SDS011;12791;50.992;13.788;2022-09-09T05:17:08;2.30;;;0.93;;
24663;SDS011;12791;50.992;13.788;2022-09-09T05:19:35;5.05;;;1.45;;
24663;SDS011;12791;50.992;13.788;2022-09-09T05:22:02;2.50;;;1.27;;
24663;SDS011;12791;50.992;13.788;2022-09-09T05:24:29;3.28;;;1.40;;
24663;SDS011;12791;50.992;13.788;2022-09-09T05:26:59;1.95;;;1.10;;
24663;SDS011;12791;50.992;13.788;2022-09-09T05:29:27;2.78;;;1.23;;
24663;SDS011;12791;50.992;13.788;2022-09-09T05:31:53;3.05;;;1.35;;
24663;SDS011;12791;50.992;13.788;2022-09-09T05:34:20;1.92;;;1.70;;
24663;SDS011;12791;50.992;13.788;2022-09-09T05:36:47;1.77;;;1.45;;
24663;SDS011;12791;50.992;13.788;2022-09-09T05:39:13;1.92;;;1.42;;
24663;SDS011;12791;50.992;13.788;2022-09-09T05:41:40;2.05;;;1.20;;
24663;SDS011;12791;50.992;13.788;2022-09-09T05:44:08;4.90;;;1.92;;
24663;SDS011;12791;50.992;13.788;2022-09-09T05:46:35;4.97;;;1.75;;
24663;SDS011;12791;50.992;13.788;2022-09-09T05:49:01;3.28;;;1.52;;
24663;SDS011;12791;50.992;13.788;2022-09-09T05:51:30;2.75;;;1.38;;
24663;SDS011;12791;50.992;13.788;2022-09-09T05:53:57;2.75;;;1.25;;
24663;SDS011;12791;50.992;13.788;2022-09-09T05:56:24;6.78;;;1.45;;
24663;SDS011;12791;50.992;13.788;2022-09-09T05:58:52;1.52;;;1.20;;
24663;SDS011;12791;50.992;13.788;2022-09-09T06:01:22;2.53;;;1.10;;
24663;SDS011;12791;50.992;13.788;2022-09-09T06:03:51;1.98;;;1.25;;
24663;SDS011;12791;50.992;13.788;2022-09-09T06:06:18;1.70;;;1.08;;
24663;SDS011;12791;50.992;13.788;2022-09-09T06:08:46;2.08;;;1.08;;
24663;SDS011;12791;50.992;13.788;2022-09-09T06:11:16;1.95;;;1.10;;
24663;SDS011;12791;50.992;13.788;2022-09-09T06:13:44;1.20;;;1.05;;
24663;SDS011;12791;50.992;13.788;2022-09-09T06:16:13;2.35;;;1.45;;
24663;SDS011;12791;50.992;13.788;2022-09-09T06:18:43;3.28;;;1.52;;
24663;SDS011;12791;50.992;13.788;2022-09-09T06:21:11;2.28;;;1.55;;
24663;SDS011;12791;50.992;13.788;2022-09-09T06:23:41;3.78;;;1.75;;
24663;SDS011;12791;50.992;13.788;2022-09-09T06:26:11;2.10;;;1.90;;
24663;SDS011;12791;50.992;13.788;2022-09-09T06:28:39;1.92;;;1.70;;
24663;SDS011;12791;50.992;13.788;2022-09-09T06:31:08;4.72;;;1.80;;
24663;SDS011;12791;50.992;13.788;2022-09-09T06:33:37;2.08;;;1.65;;
24663;SDS011;12791;50.992;13.788;2022-09-09T06:36:11;3.70;;;2.42;;
24663;SDS011;12791;50.992;13.788;2022-09-09T06:38:40;2.50;;;2.30;;
24663;SDS011;12791;50.992;13.788;2022-09-09T06:41:07;2.47;;;2.33;;
24663;SDS011;12791;50.992;13.788;2022-09-09T06:43:35;3.08;;;2.15;;
24663;SDS011;12791;50.992;13.788;2022-09-09T06:46:02;3.50;;;2.28;;
24663;SDS011;12791;50.992;13.788;2022-09-09T06:48:30;3.60;;;2.08;;
24663;SDS011;12791;50.992;13.788;2022-09-09T06:51:00;3.15;;;2.17;;
24663;SDS011;12791;50.992;13.788;2022-09-09T06:53:30;6.50;;;2.95;;
24663;SDS011;12791;50.992;13.788;2022-09-09T06:55:58;3.60;;;3.03;;
24663;SDS011;12791;50.992;13.788;2022-09-09T06:58:26;3.75;;;3.20;;
24663;SDS011;12791;50.992;13.788;2022-09-09T07:00:53;3.67;;;2.42;;
24663;SDS011;12791;50.992;13.788;2022-09-09T07:03:26;4.22;;;2.63;;
24663;SDS011;12791;50.992;13.788;2022-09-09T07:05:54;3.28;;;2.72;;
24663;SDS011;12791;50.992;13.788;2022-09-09T07:08:21;6.18;;;2.72;;
24663;SDS011;12791;50.992;13.788;2022-09-09T07:10:49;2.75;;;2.53;;
24663;SDS011;12791;50.992;13.788;2022-09-09T07:13:16;3.35;;;2.70;;
24663;SDS011;12791;50.992;13.788;2022-09-09T07:15:45;4.20;;;2.85;;
24663;SDS011;12791;50.992;13.788;2022-09-09T07:18:11;3.38;;;2.85;;
24663;SDS011;12791;50.992;13.788;2022-09-09T07:20:38;3.97;;;3.40;;
24663;SDS011;12791;50.992;13.788;2022-09-09T07:23:04;4.13;;;3.15;;
24663;SDS011;12791;50.992;13.788;2022-09-09T07:25:31;9.05;;;3.90;;
24663;SDS011;12791;50.992;13.788;2022-09-09T07:27:59;5.78;;;3.08;;
24663;SDS011;12791;50.992;13.788;2022-09-09T07:30:25;6.50;;;3.17;;
24663;SDS011;12791;50.992;13.788;2022-09-09T07:32:52;2.90;;;2.70;;
24663;SDS011;12791;50.992;13.788;2022-09-09T07:35:18;3.25;;;2.95;;
24663;SDS011;12791;50.992;13.788;2022-09-09T07:37:45;3.95;;;2.65;;
24663;SDS011;12791;50.992;13.788;2022-09-09T07:40:12;3.45;;;2.85;;
24663;SDS011;12791;50.992;13.788;2022-09-09T07:42:39;4.70;;;2.35;;
24663;SDS011;12791;50.992;13.788;2022-09-09T07:45:07;2.75;;;2.00;;
24663;SDS011;12791;50.992;13.788;2022-09-09T07:47:34;3.70;;;2.47;;
24663;SDS011;12791;50.992;13.788;2022-09-09T07:50:00;3.50;;;2.90;;
24663;SDS011;12791;50.992;13.788;2022-09-09T07:52:27;2.47;;;2.00;;
24663;SDS011;12791;50.992;13.788;2022-09-09T07:54:54;3.22;;;2.28;;
24663;SDS011;12791;50.992;13.788;2022-09-09T07:57:21;4.68;;;2.00;;
24663;SDS011;12791;50.992;13.788;2022-09-09T07:59:48;4.57;;;2.17;;
24663;SDS011;12791;50.992;13.788;2022-09-09T08:02:16;1.83;;;1.67;;
24663;SDS011;12791;50.992;13.788;2022-09-09T08:04:43;3.42;;;2.08;;
24663;SDS011;12791;50.992;13.788;2022-09-09T08:07:11;3.63;;;1.70;;
24663;SDS011;12791;50.992;13.788;2022-09-09T08:09:38;4.97;;;2.03;;
24663;SDS011;12791;50.992;13.788;2022-09-09T08:12:04;1.60;;;1.50;;
24663;SDS011;12791;50.992;13.788;2022-09-09T08:14:31;3.30;;;2.05;;
24663;SDS011;12791;50.992;13.788;2022-09-09T08:16:58;3.00;;;2.70;;
24663;SDS011;12791;50.992;13.788;2022-09-09T08:19:26;2.95;;;1.95;;
24663;SDS011;12791;50.992;13.788;2022-09-09T08:21:54;2.88;;;1.95;;
24663;SDS011;12791;50.992;13.788;2022-09-09T08:24:21;2.20;;;1.88;;
24663;SDS011;12791;50.992;13.788;2022-09-09T08:26:48;2.22;;;1.60;;
24663;SDS011;12791;50.992;13.788;2022-09-09T08:29:15;1.17;;;0.98;;
24663;SDS011;12791;50.992;13.788;2022-09-09T08:31:43;0.98;;;0.80;;
24663;SDS011;12791;50.992;13.788;2022-09-09T08:34:10;1.23;;;0.70;;
24663;SDS011;12791;50.992;13.788;2022-09-09T08:36:39;0.93;;;0.80;;
24663;SDS011;12791;50.992;13.788;2022-09-09T08:39:08;2.00;;;0.70;;
24663;SDS011;12791;50.992;13.788;2022-09-09T08:44:29;0.60;;;0.60;;
24663;SDS011;12791;50.992;13.788;2022-09-09T08:47:04;1.20;;;0.50;;
24663;SDS011;12791;50.992;13.788;2022-09-09T08:49:47;1.38;;;0.60;;
24663;SDS011;12791;50.992;13.788;2022-09-09T08:52:29;1.95;;;0.70;;
24663;SDS011;12791;50.992;13.788;2022-09-09T08:54:59;2.40;;;0.95;;
24663;SDS011;12791;50.992;13.788;2022-09-09T08:57:38;2.80;;;1.00;;
24663;SDS011;12791;50.992;13.788;2022-09-09T09:00:07;1.95;;;0.80;;
24663;SDS011;12791;50.992;13.788;2022-09-09T09:02:37;0.98;;;0.80;;
24663;SDS011;12791;50.992;13.788;2022-09-09T09:05:15;0.60;;;0.60;;
24663;SDS011;12791;50.992;13.788;2022-09-09T09:07:54;2.63;;;0.60;;
24663;SDS011;12791;50.992;13.788;2022-09-09T09:10:34;0.60;;;0.50;;
24663;SDS011;12791;50.992;13.788;2022-09-09T09:13:13;0.98;;;0.60;;
24663;SDS011;12791;50.992;13.788;2022-09-09T09:15:41;1.45;;;0.45;;
24663;SDS011;12791;50.992;13.788;2022-09-09T09:18:10;1.02;;;0.47;;
24663;SDS011;12791;50.992;13.788;2022-09-09T09:20:40;0.70;;;0.50;;
24663;SDS011;12791;50.992;13.788;2022-09-09T09:23:15;1.80;;;0.57;;
24663;SDS011;12791;50.992;13.788;2022-09-09T09:25:47;1.33;;;0.50;;
24663;SDS011;12791;50.992;13.788;2022-09-09T09:28:15;1.50;;;0.40;;
24663;SDS011;12791;50.992;13.788;2022-09-09T09:30:44;0.75;;;0.35;;
24663;SDS011;12791;50.992;13.788;2022-09-09T09:33:18;1.70;;;0.40;;
24663;SDS011;12791;50.992;13.788;2022-09-09T09:35:48;1.50;;;0.40;;
24663;SDS011;12791;50.992;13.788;2022-09-09T09:38:18;1.85;;;0.40;;
24663;SDS011;12791;50.992;13.788;2022-09-09T09:40:50;1.50;;;0.50;;
24663;SDS011;12791;50.992;13.788;2022-09-09T09:43:20;2.30;;;0.40;;
24663;SDS011;12791;50.992;13.788;2022-09-09T09:45:50;1.73;;;0.50;;
24663;SDS011;12791;50.992;13.788;2022-09-09T09:48:17;1.92;;;0.30;;
24663;SDS011;12791;50.992;13.788;2022-09-09T09:50:46;1.50;;;0.50;;
24663;SDS011;12791;50.992;13.788;2022-09-09T09:53:20;1.40;;;0.60;;
24663;SDS011;12791;50.992;13.788;2022-09-09T09:55:51;1.40;;;0.45;;
24663;SDS011;12791;50.992;13.788;2022-09-09T09:58:21;1.67;;;0.52;;
24663;SDS011;12791;50.992;13.788;2022-09-09T10:00:49;1.35;;;0.45;;
24663;SDS011;12791;50.992;13.788;2022-09-09T10:03:21;1.50;;;0.57;;
24663;SDS011;12791;50.992;13.788;2022-09-09T10:05:51;1.00;;;0.30;;
24663;SDS011;12791;50.992;13.788;2022-09-09T10:08:18;1.63;;;0.73;;
24663;SDS011;12791;50.992;13.788;2022-09-09T10:10:49;1.27;;;0.40;;
24663;SDS011;12791;50.992;13.788;2022-09-09T10:13:28;1.85;;;0.60;;
24663;SDS011;12791;50.992;13.788;2022-09-09T10:16:02;1.88;;;0.80;;
24663;SDS011;12791;50.992;13.788;2022-09-09T10:18:42;1.38;;;0.35;;
24663;SDS011;12791;50.992;13.788;2022-09-09T10:21:20;2.22;;;0.50;;
24663;SDS011;12791;50.992;13.788;2022-09-09T10:24:12;4.82;;;0.70;;
24663;SDS011;12791;50.992;13.788;2022-09-09T10:26:55;2.25;;;0.57;;
24663;SDS011;12791;50.992;13.788;2022-09-09T10:29:33;1.73;;;0.65;;
24663;SDS011;12791;50.992;13.788;2022-09-09T10:32:20;3.22;;;0.65;;
24663;SDS011;12791;50.992;13.788;2022-09-09T10:35:01;3.35;;;0.88;;
24663;SDS011;12791;50.992;13.788;2022-09-09T10:37:37;1.52;;;0.60;;
24663;SDS011;12791;50.992;13.788;2022-09-09T10:42:56;3.78;;;0.95;;
24663;SDS011;12791;50.992;13.788;2022-09-09T10:45:28;2.38;;;0.90;;
24663;SDS011;12791;50.992;13.788;2022-09-09T10:48:06;0.85;;;0.60;;
24663;SDS011;12791;50.992;13.788;2022-09-09T10:50:45;1.38;;;0.90;;
24663;SDS011;12791;50.992;13.788;2022-09-09T10:53:20;3.33;;;0.88;;
24663;SDS011;12791;50.992;13.788;2022-09-09T10:56:01;3.05;;;0.93;;
24663;SDS011;12791;50.992;13.788;2022-09-09T10:58:31;0.95;;;0.60;;
24663;SDS011;12791;50.992;13.788;2022-09-09T11:01:06;1.42;;;0.70;;
24663;SDS011;12791;50.992;13.788;2022-09-09T11:03:41;1.65;;;0.95;;
24663;SDS011;12791;50.992;13.788;2022-09-09T11:06:09;1.67;;;1.00;;
24663;SDS011;12791;50.992;13.788;2022-09-09T11:11:11;1.42;;;0.65;;
24663;SDS011;12791;50.992;13.788;2022-09-09T11:13:44;2.25;;;0.88;;
24663;SDS011;12791;50.992;13.788;2022-09-09T11:16:19;2.50;;;0.60;;
24663;SDS011;12791;50.992;13.788;2022-09-09T11:21:22;1.35;;;0.60;;
24663;SDS011;12791;50.992;13.788;2022-09-09T11:23:54;2.67;;;0.88;;
24663;SDS011;12791;50.992;13.788;2022-09-09T11:26:28;3.15;;;0.80;;
24663;SDS011;12791;50.992;13.788;2022-09-09T11:29:02;2.35;;;0.85;;
24663;SDS011;12791;50.992;13.788;2022-09-09T11:31:44;2.45;;;1.00;;
24663;SDS011;12791;50.992;13.788;2022-09-09T11:34:15;2.35;;;0.70;;
24663;SDS011;12791;50.992;13.788;2022-09-09T11:37:04;1.42;;;0.80;;
24663;SDS011;12791;50.992;13.788;2022-09-09T11:42:36;1.25;;;0.80;;
24663;SDS011;12791;50.992;13.788;2022-09-09T11:45:09;2.08;;;0.60;;
24663;SDS011;12791;50.992;13.788;2022-09-09T11:47:50;1.15;;;0.70;;
24663;SDS011;12791;50.992;13.788;2022-09-09T11:50:27;1.33;;;0.60;;
24663;SDS011;12791;50.992;13.788;2022-09-09T11:56:00;1.13;;;0.60;;
24663;SDS011;12791;50.992;13.788;2022-09-09T11:58:30;2.08;;;1.02;;
24663;SDS011;12791;50.992;13.788;2022-09-09T12:01:13;2.08;;;0.65;;
24663;SDS011;12791;50.992;13.788;2022-09-09T12:03:41;0.85;;;0.60;;
24663;SDS011;12791;50.992;13.788;2022-09-09T12:06:12;1.33;;;0.70;;
24663;SDS011;12791;50.992;13.788;2022-09-09T12:08:43;2.45;;;0.57;;
24663;SDS011;12791;50.992;13.788;2022-09-09T12:11:23;1.25;;;0.50;;
24663;SDS011;12791;50.992;13.788;2022-09-09T12:13:53;1.60;;;0.70;;
24663;SDS011;12791;50.992;13.788;2022-09-09T12:16:31;1.80;;;0.60;;
24663;SDS011;12791;50.992;13.788;2022-09-09T12:19:06;1.45;;;0.60;;
24663;SDS011;12791;50.992;13.788;2022-09-09T12:21:40;2.45;;;0.80;;
24663;SDS011;12791;50.992;13.788;2022-09-09T12:24:13;1.25;;;0.60;;
24663;SDS011;12791;50.992;13.788;2022-09-09T12:26:46;1.60;;;0.60;;
24663;SDS011;12791;50.992;13.788;2022-09-09T12:29:23;1.25;;;0.70;;
24663;SDS011;12791;50.992;13.788;2022-09-09T12:31:56;1.45;;;0.60;;
24663;SDS011;12791;50.992;13.788;2022-09-09T12:34:33;1.50;;;0.63;;
24663;SDS011;12791;50.992;13.788;2022-09-09T12:37:06;3.75;;;0.80;;
24663;SDS011;12791;50.992;13.788;2022-09-09T12:39:40;2.70;;;0.90;;
24663;SDS011;12791;50.992;13.788;2022-09-09T12:42:16;2.73;;;0.70;;
24663;SDS011;12791;50.992;13.788;2022-09-09T12:44:51;0.80;;;0.70;;
24663;SDS011;12791;50.992;13.788;2022-09-09T12:47:19;0.95;;;0.60;;
24663;SDS011;12791;50.992;13.788;2022-09-09T12:49:48;1.45;;;0.60;;
24663;SDS011;12791;50.992;13.788;2022-09-09T12:52:17;0.63;;;0.60;;
24663;SDS011;12791;50.992;13.788;2022-09-09T12:54:49;1.55;;;0.75;;
24663;SDS011;12791;50.992;13.788;2022-09-09T12:57:16;2.00;;;0.80;;
24663;SDS011;12791;50.992;13.788;2022-09-09T12:59:43;0.75;;;0.55;;
24663;SDS011;12791;50.992;13.788;2022-09-09T13:02:16;2.38;;;0.82;;
24663;SDS011;12791;50.992;13.788;2022-09-09T13:04:45;1.17;;;0.60;;
24663;SDS011;12791;50.992;13.788;2022-09-09T13:07:12;1.05;;;0.60;;
24663;SDS011;12791;50.992;13.788;2022-09-09T13:09:41;1.13;;;0.57;;
24663;SDS011;12791;50.992;13.788;2022-09-09T13:12:10;0.50;;;0.50;;
24663;SDS011;12791;50.992;13.788;2022-09-09T13:14:42;0.98;;;0.60;;
24663;SDS011;12791;50.992;13.788;2022-09-09T13:17:17;2.17;;;0.80;;
24663;SDS011;12791;50.992;13.788;2022-09-09T13:19:46;3.03;;;0.77;;
24663;SDS011;12791;50.992;13.788;2022-09-09T13:22:20;0.93;;;0.70;;
24663;SDS011;12791;50.992;13.788;2022-09-09T13:24:58;0.50;;;0.50;;
24663;SDS011;12791;50.992;13.788;2022-09-09T13:27:28;1.95;;;0.50;;
24663;SDS011;12791;50.992;13.788;2022-09-09T13:29:57;0.88;;;0.50;;
24663;SDS011;12791;50.992;13.788;2022-09-09T13:32:26;2.35;;;0.60;;
24663;SDS011;12791;50.992;13.788;2022-09-09T13:34:54;0.50;;;0.50;;
24663;SDS011;12791;50.992;13.788;2022-09-09T13:37:23;0.73;;;0.60;;
24663;SDS011;12791;50.992;13.788;2022-09-09T13:39:57;1.20;;;0.60;;
24663;SDS011;12791;50.992;13.788;2022-09-09T13:42:24;1.90;;;1.10;;
24663;SDS011;12791;50.992;13.788;2022-09-09T13:44:53;0.80;;;0.40;;
24663;SDS011;12791;50.992;13.788;2022-09-09T13:47:21;1.98;;;0.57;;
24663;SDS011;12791;50.992;13.788;2022-09-09T13:49:54;0.75;;;0.50;;
24663;SDS011;12791;50.992;13.788;2022-09-09T13:52:21;1.05;;;0.50;;
24663;SDS011;12791;50.992;13.788;2022-09-09T13:54:48;0.57;;;0.50;;
24663;SDS011;12791;50.992;13.788;2022-09-09T13:57:16;0.73;;;0.45;;
24663;SDS011;12791;50.992;13.788;2022-09-09T13:59:45;2.03;;;0.55;;
24663;SDS011;12791;50.992;13.788;2022-09-09T14:02:12;2.08;;;0.40;;
24663;SDS011;12791;50.992;13.788;2022-09-09T14:04:40;1.20;;;0.50;;
24663;SDS011;12791;50.992;13.788;2022-09-09T14:07:08;1.20;;;0.60;;
24663;SDS011;12791;50.992;13.788;2022-09-09T14:09:37;0.52;;;0.40;;
24663;SDS011;12791;50.992;13.788;2022-09-09T14:12:04;0.60;;;0.45;;
24663;SDS011;12791;50.992;13.788;2022-09-09T14:14:30;0.95;;;0.40;;
24663;SDS011;12791;50.992;13.788;2022-09-09T14:16:57;0.80;;;0.50;;
24663;SDS011;12791;50.992;13.788;2022-09-09T14:19:24;0.45;;;0.40;;
24663;SDS011;12791;50.992;13.788;2022-09-09T14:21:52;2.15;;;0.40;;
24663;SDS011;12791;50.992;13.788;2022-09-09T14:24:19;0.80;;;0.43;;
24663;SDS011;12791;50.992;13.788;2022-09-09T14:26:46;1.77;;;0.40;;
24663;SDS011;12791;50.992;13.788;2022-09-09T14:29:12;1.08;;;0.40;;
24663;SDS011;12791;50.992;13.788;2022-09-09T14:31:39;0.30;;;0.30;;
24663;SDS011;12791;50.992;13.788;2022-09-09T14:34:06;1.25;;;0.40;;
24663;SDS011;12791;50.992;13.788;2022-09-09T14:36:32;1.08;;;0.40;;
24663;SDS011;12791;50.992;13.788;2022-09-09T14:39:00;3.03;;;0.60;;
24663;SDS011;12791;50.992;13.788;2022-09-09T14:41:27;1.58;;;0.50;;
24663;SDS011;12791;50.992;13.788;2022-09-09T14:43:54;1.60;;;0.50;;
24663;SDS011;12791;50.992;13.788;2022-09-09T14:46:21;2.17;;;0.43;;
24663;SDS011;12791;50.992;13.788;2022-09-09T14:48:48;1.13;;;0.50;;
24663;SDS011;12791;50.992;13.788;2022-09-09T14:51:15;1.08;;;0.50;;
24663;SDS011;12791;50.992;13.788;2022-09-09T14:53:44;1.10;;;0.40;;
24663;SDS011;12791;50.992;13.788;2022-09-09T14:56:14;0.98;;;0.57;;
24663;SDS011;12791;50.992;13.788;2022-09-09T14:58:41;1.58;;;0.60;;
24663;SDS011;12791;50.992;13.788;2022-09-09T15:01:09;1.58;;;0.60;;
24663;SDS011;12791;50.992;13.788;2022-09-09T15:03:36;1.27;;;0.60;;
24663;SDS011;12791;50.992;13.788;2022-09-09T15:06:07;2.25;;;0.80;;
24663;SDS011;12791;50.992;13.788;2022-09-09T15:08:35;2.05;;;0.60;;